Roanoke — WDD9656 — position and weather

sailwx.info

Track history (hours):
 
Tides and Currents Weather Stations Pressure Air Temp Water Temp Dewpoint Dewpoint Depression Visibility Wind Speed Wind Dir Waves Ship Positions

Roanoke

Owner: Vane Line Bunkering, Baltimore, MD. More information available from US FCC via Universal Licensing System and Coast Guard Vessel Documentation Center.

Last reported at 2016-Dec-07 17:33 UTC. Time now 2016-Dec-07 18:22 UTC.
Position N 39°54' W 075°12'.

Length 32 m; draft 13 m.

Type: Towing. MMSI: 367314510.

Date/timePositionNaut miles runAvg speedWind from/ knotsBaromVisibWave heightAir tempDewpointWater temp
2016-Dec-07 17:33N 39°54' W 075°12'0 0.0
2016-Dec-07 16:33N 39°54' W 075°12'1 0.5
2016-Dec-07 15:34N 39°54' W 075°12'1 0.5
2016-Dec-07 14:33N 39°54' W 075°12'1 0.7
2016-Dec-07 13:33N 39°53' W 075°12'0 0.2
2016-Dec-07 12:33N 39°53' W 075°12'0 0.4
2016-Dec-07 11:33N 39°52' W 075°13'2 2.2
2016-Dec-07 10:33N 39°55' W 075°13'0 0.0
2016-Dec-07 09:33N 39°55' W 075°13'0 0.0
2016-Dec-07 08:33N 39°55' W 075°13'0 0.0
2016-Dec-07 07:33N 39°55' W 075°13'0 0.0
2016-Dec-07 06:33N 39°55' W 075°13'0 0.0
2016-Dec-07 05:33N 39°55' W 075°13'0 0.0
2016-Dec-07 04:33N 39°55' W 075°13'0 0.0
2016-Dec-07 03:33N 39°55' W 075°13'0 0.0
2016-Dec-07 02:33N 39°55' W 075°13'0 0.0
2016-Dec-07 01:33N 39°55' W 075°13'0 0.3
2016-Dec-07 00:33N 39°54' W 075°13'1 0.8
2016-Dec-06 23:33N 39°54' W 075°12'0 0.0
2016-Dec-06 22:33N 39°54' W 075°12'1 0.6
2016-Dec-06 21:33N 39°54' W 075°12'2 2.0
2016-Dec-06 20:33N 39°52' W 075°13'15 7.7
2016-Dec-06 18:33N 39°44' W 075°30'1 0.5
2016-Dec-06 16:33N 39°43' W 075°31'0 0.0
2016-Dec-06 15:33N 39°43' W 075°31'0 0.0
2016-Dec-06 14:33N 39°43' W 075°31'0 0.0
2016-Dec-06 13:33N 39°43' W 075°31'1 0.8
2016-Dec-06 12:33N 39°43' W 075°30'0 0.2
2016-Dec-06 11:33N 39°43' W 075°30'0 0.2
2016-Dec-06 10:33N 39°43' W 075°30'1 0.8
2016-Dec-06 09:33N 39°43' W 075°31'0 0.0
2016-Dec-06 08:33N 39°43' W 075°31'0 0.0
2016-Dec-06 07:33N 39°43' W 075°31'0 0.0
2016-Dec-06 06:33N 39°43' W 075°31'0 0.0
2016-Dec-06 05:33N 39°43' W 075°31'1 1.2
2016-Dec-06 04:33N 39°44' W 075°30'9 9.0
2016-Dec-06 03:33N 39°50' W 075°22'9 9.4
2016-Dec-06 02:33N 39°53' W 075°10'7 7.4
2016-Dec-06 01:33N 39°59' W 075°04'1 1.0
2016-Dec-06 00:33N 39°59' W 075°05'0 0.0
2016-Dec-05 23:33N 39°59' W 075°05'0 0.0
2016-Dec-05 22:33N 39°59' W 075°05'0 0.0
2016-Dec-05 21:33N 39°59' W 075°05'4 4.2
2016-Dec-05 20:33N 39°55' W 075°08'4 3.8
2016-Dec-05 19:33N 39°54' W 075°12'0 0.0
2016-Dec-05 18:33N 39°54' W 075°12'0 0.0
2016-Dec-05 17:33N 39°54' W 075°12'0 0.0
2016-Dec-05 16:33N 39°54' W 075°12'0 0.0
2016-Dec-05 15:33N 39°54' W 075°12'0 0.0
2016-Dec-05 14:33N 39°54' W 075°12'1 0.7
2016-Dec-05 13:33N 39°54' W 075°12'0 0.0
2016-Dec-05 12:33N 39°54' W 075°12'0 0.0
2016-Dec-05 11:34N 39°54' W 075°12'0 0.0
2016-Dec-05 10:33N 39°54' W 075°12'0 0.0
2016-Dec-05 09:33N 39°54' W 075°12'0 0.0
2016-Dec-05 08:33N 39°54' W 075°12'0 0.0
2016-Dec-05 07:34N 39°54' W 075°12'0 0.0
2016-Dec-05 06:34N 39°54' W 075°12'0 0.0
2016-Dec-05 05:34N 39°54' W 075°12'0 0.0
2016-Dec-05 04:34N 39°54' W 075°12'0 0.0
2016-Dec-05 03:34N 39°54' W 075°12'0 0.0
2016-Dec-05 02:33N 39°54' W 075°12'0 0.0
2016-Dec-05 01:33N 39°54' W 075°12'0 0.0
2016-Dec-05 00:33N 39°54' W 075°12'0 0.0
2016-Dec-04 23:33N 39°54' W 075°12'0 0.0
2016-Dec-04 22:34N 39°54' W 075°12'0 0.0
2016-Dec-04 21:34N 39°54' W 075°12'0 0.0
2016-Dec-04 20:34N 39°54' W 075°12'0 0.0
2016-Dec-04 19:33N 39°54' W 075°12'0 0.0
2016-Dec-04 18:33N 39°54' W 075°12'0 0.0
2016-Dec-04 17:34N 39°54' W 075°12'0 0.0
2016-Dec-04 16:34N 39°53' W 075°12'0 0.0
2016-Dec-04 15:34N 39°53' W 075°12'0 0.0
2016-Dec-04 14:33N 39°53' W 075°12'0 0.0
2016-Dec-04 13:33N 39°53' W 075°12'0 0.0
2016-Dec-04 12:34N 39°54' W 075°12'0 0.0
2016-Dec-04 11:33N 39°54' W 075°12'0 0.0
2016-Dec-04 10:33N 39°54' W 075°12'0 0.0
2016-Dec-04 09:34N 39°54' W 075°12'0 0.0
2016-Dec-04 08:34N 39°54' W 075°12'0 0.0
2016-Dec-04 07:34N 39°54' W 075°12'0 0.0
2016-Dec-04 06:34N 39°54' W 075°12'0 0.0
2016-Dec-04 05:34N 39°54' W 075°12'0 0.0
2016-Dec-04 04:34N 39°54' W 075°12'0 0.0
2016-Dec-04 03:34N 39°54' W 075°12'0 0.0
2016-Dec-04 02:33N 39°54' W 075°12'0 0.0
2016-Dec-04 01:34N 39°54' W 075°12'2 2.5
2016-Dec-04 00:34N 39°54' W 075°08'5 5.1
2016-Dec-03 23:33N 39°51' W 075°14'7 7.2
2016-Dec-03 22:33N 39°49' W 075°23'2 1.8
2016-Dec-03 21:34N 39°48' W 075°25'0 0.0
2016-Dec-03 20:33N 39°48' W 075°25'0 0.1
2016-Dec-03 19:34N 39°48' W 075°25'0 0.1
2016-Dec-03 18:33N 39°48' W 075°25'0 0.1
2016-Dec-03 17:34N 39°48' W 075°25'5 4.9
2016-Dec-03 16:33N 39°51' W 075°19'6 6.2
2016-Dec-03 15:33N 39°53' W 075°12'2 1.8
2016-Dec-03 14:33N 39°55' W 075°13'0 0.0
2016-Dec-03 13:34N 39°55' W 075°13'0 0.0
2016-Dec-03 12:33N 39°55' W 075°13'0 0.0
2016-Dec-03 11:33N 39°55' W 075°13'1 0.7
2016-Dec-03 10:33N 39°54' W 075°13'3 3.4
2016-Dec-03 09:34N 39°54' W 075°08'0 0.4
2016-Dec-03 08:33N 39°54' W 075°08'6 6.1
2016-Dec-03 07:34N 39°51' W 075°15'4 4.2
2016-Dec-03 06:33N 39°53' W 075°10'2 1.6
2016-Dec-03 05:34N 39°54' W 075°08'3 2.8
2016-Dec-03 04:33N 39°54' W 075°12'0 0.4
2016-Dec-03 03:34N 39°54' W 075°12'1 1.1
2016-Dec-03 02:34N 39°53' W 075°10'5 5.5
2016-Dec-03 01:34N 39°58' W 075°07'2 1.6
2016-Dec-03 00:34N 39°59' W 075°05'0 0.0
2016-Dec-02 23:34N 39°59' W 075°05'0 0.0
2016-Dec-02 22:34N 39°59' W 075°05'0 0.0
2016-Dec-02 21:34N 39°59' W 075°05'0 0.0
2016-Dec-02 20:33N 39°59' W 075°05'0 0.1
2016-Dec-02 19:33N 39°59' W 075°05'3 3.4
2016-Dec-02 18:34N 39°56' W 075°08'4 3.6
2016-Dec-02 17:33N 39°54' W 075°12'0 0.0
2016-Dec-02 16:33N 39°54' W 075°12'0 0.0
2016-Dec-02 15:34N 39°54' W 075°12'0 0.0
2016-Dec-02 14:34N 39°54' W 075°12'1 0.7
2016-Dec-02 13:34N 39°54' W 075°12'0 0.0
2016-Dec-02 12:34N 39°54' W 075°12'0 0.0
2016-Dec-02 11:34N 39°54' W 075°12'0 0.0
2016-Dec-02 10:34N 39°54' W 075°12'1 1.0
2016-Dec-02 09:33N 39°53' W 075°12'3 2.5
2016-Dec-02 08:34N 39°53' W 075°08'9 9.3
2016-Dec-02 07:33N 39°51' W 075°20'1010.1
2016-Dec-02 06:33N 39°44' W 075°30'10 9.6
2016-Dec-02 05:34N 39°35' W 075°33'6 6.3
2016-Dec-02 04:33N 39°33' W 075°41'9 9.4
2016-Dec-02 03:34N 39°31' W 075°53'10 9.8
2016-Dec-02 02:34N 39°24' W 076°02'10 9.8
2016-Dec-02 01:33N 39°19' W 076°13'10 9.3
2016-Dec-02 00:26N 39°10' W 076°19'8 9.3
2016-Dec-01 23:34N 39°02' W 076°22'10 9.6
2016-Dec-01 22:31N 38°52' W 076°26'42 1.3
2016-Nov-30 13:33N 38°13' W 076°06'0 0.4
2016-Nov-30 12:31N 38°13' W 076°07'49 4.5
2016-Nov-30 01:33N 39°00' W 076°23'9 8.3
2016-Nov-30 00:32N 39°09' W 076°25'8 7.9
2016-Nov-29 23:34N 39°14' W 076°32'2 2.2
2016-Nov-29 22:34N 39°15' W 076°33'0 0.0
2016-Nov-29 21:32N 39°15' W 076°33'1 1.1
2016-Nov-29 20:34N 39°15' W 076°34'0 0.1
2016-Nov-29 19:30N 39°15' W 076°34'0 0.0
2016-Nov-29 18:10N 39°15' W 076°34'0 0.0
2016-Nov-29 17:30N 39°15' W 076°34'0 0.0
2016-Nov-29 16:30N 39°15' W 076°34'0 0.0
2016-Nov-29 15:20N 39°15' W 076°34'1 0.3
2016-Nov-29 13:34N 39°15' W 076°34'1 0.5
2016-Nov-29 12:33N 39°15' W 076°33'0 0.4
2016-Nov-29 11:33N 39°16' W 076°33'0 0.0
2016-Nov-29 10:33N 39°16' W 076°33'0 0.0
2016-Nov-29 09:33N 39°16' W 076°33'0 0.0
2016-Nov-29 08:34N 39°16' W 076°33'0 0.0
2016-Nov-29 07:34N 39°16' W 076°33'0 0.0
2016-Nov-29 06:33N 39°16' W 076°33'0 0.0
2016-Nov-29 05:34N 39°16' W 076°33'0 0.0
2016-Nov-29 04:34N 39°16' W 076°33'0 0.0
2016-Nov-29 03:33N 39°16' W 076°33'0 0.0
2016-Nov-29 02:33N 39°16' W 076°33'0 0.0
2016-Nov-29 01:33N 39°16' W 076°33'0 0.0
2016-Nov-29 00:33N 39°16' W 076°33'0 0.0
2016-Nov-28 23:34N 39°16' W 076°33'0 0.0
2016-Nov-28 22:33N 39°16' W 076°33'0 0.4
2016-Nov-28 21:33N 39°15' W 076°33'0 0.3
2016-Nov-28 20:34N 39°15' W 076°33'0 0.0
2016-Nov-28 19:34N 39°15' W 076°33'0 0.0
2016-Nov-28 18:33N 39°15' W 076°33'0 0.0
2016-Nov-28 17:33N 39°15' W 076°33'0 0.0
2016-Nov-28 16:34N 39°15' W 076°33'0 0.1
2016-Nov-28 15:33N 39°15' W 076°33'1 1.0
2016-Nov-28 14:33N 39°14' W 076°33'8 7.5
2016-Nov-28 13:30N 39°10' W 076°24'6 6.6
2016-Nov-28 12:33N 39°12' W 076°16'6 6.2
2016-Nov-28 11:33N 39°18' W 076°14'5 5.2
2016-Nov-28 10:33N 39°21' W 076°09'4 3.7
2016-Nov-28 09:33N 39°23' W 076°05'0 0.5
2016-Nov-28 08:34N 39°23' W 076°05'0 0.0
2016-Nov-28 07:34N 39°23' W 076°05'0 0.0
2016-Nov-28 06:33N 39°23' W 076°05'6 6.2
2016-Nov-28 05:33N 39°20' W 076°12'8 7.7
2016-Nov-28 04:34N 39°13' W 076°16'9 8.0
2016-Nov-28 03:26N 39°05' W 076°21'7 8.4
2016-Nov-28 02:33N 38°57' W 076°24'55 7.9
2016-Nov-27 19:33N 38°02' W 076°22'  
Track history (hours):
 
Tides and Currents Weather Stations Pressure Air Temp Water Temp Dewpoint Dewpoint Depression Visibility Wind Speed Wind Dir Waves Ship Positions

Roanoke

Owner: Vane Line Bunkering, Baltimore, MD. More information available from US FCC via Universal Licensing System and Coast Guard Vessel Documentation Center.

Last reported at 2016-Dec-07 17:33 UTC. Time now 2016-Dec-07 18:22 UTC.
Position N 39°54' W 075°12'.

Length 32 m; draft 13 m.

Type: Towing. MMSI: 367314510.

Date/timePositionNaut miles runAvg speedWind from/ knotsBaromVisibWave heightAir tempDewpointWater temp
2016-Dec-07 17:33N 39°54' W 075°12'0 0.0
2016-Dec-07 16:33N 39°54' W 075°12'1 0.5
2016-Dec-07 15:34N 39°54' W 075°12'1 0.5
2016-Dec-07 14:33N 39°54' W 075°12'1 0.7
2016-Dec-07 13:33N 39°53' W 075°12'0 0.2
2016-Dec-07 12:33N 39°53' W 075°12'0 0.4
2016-Dec-07 11:33N 39°52' W 075°13'2 2.2
2016-Dec-07 10:33N 39°55' W 075°13'0 0.0
2016-Dec-07 09:33N 39°55' W 075°13'0 0.0
2016-Dec-07 08:33N 39°55' W 075°13'0 0.0
2016-Dec-07 07:33N 39°55' W 075°13'0 0.0
2016-Dec-07 06:33N 39°55' W 075°13'0 0.0
2016-Dec-07 05:33N 39°55' W 075°13'0 0.0
2016-Dec-07 04:33N 39°55' W 075°13'0 0.0
2016-Dec-07 03:33N 39°55' W 075°13'0 0.0
2016-Dec-07 02:33N 39°55' W 075°13'0 0.0
2016-Dec-07 01:33N 39°55' W 075°13'0 0.3
2016-Dec-07 00:33N 39°54' W 075°13'1 0.8
2016-Dec-06 23:33N 39°54' W 075°12'0 0.0
2016-Dec-06 22:33N 39°54' W 075°12'1 0.6
2016-Dec-06 21:33N 39°54' W 075°12'2 2.0
2016-Dec-06 20:33N 39°52' W 075°13'15 7.7
2016-Dec-06 18:33N 39°44' W 075°30'1 0.5
2016-Dec-06 16:33N 39°43' W 075°31'0 0.0
2016-Dec-06 15:33N 39°43' W 075°31'0 0.0
2016-Dec-06 14:33N 39°43' W 075°31'0 0.0
2016-Dec-06 13:33N 39°43' W 075°31'1 0.8
2016-Dec-06 12:33N 39°43' W 075°30'0 0.2
2016-Dec-06 11:33N 39°43' W 075°30'0 0.2
2016-Dec-06 10:33N 39°43' W 075°30'1 0.8
2016-Dec-06 09:33N 39°43' W 075°31'0 0.0
2016-Dec-06 08:33N 39°43' W 075°31'0 0.0
2016-Dec-06 07:33N 39°43' W 075°31'0 0.0
2016-Dec-06 06:33N 39°43' W 075°31'0 0.0
2016-Dec-06 05:33N 39°43' W 075°31'1 1.2
2016-Dec-06 04:33N 39°44' W 075°30'9 9.0
2016-Dec-06 03:33N 39°50' W 075°22'9 9.4
2016-Dec-06 02:33N 39°53' W 075°10'7 7.4
2016-Dec-06 01:33N 39°59' W 075°04'1 1.0
2016-Dec-06 00:33N 39°59' W 075°05'0 0.0
2016-Dec-05 23:33N 39°59' W 075°05'0 0.0
2016-Dec-05 22:33N 39°59' W 075°05'0 0.0
2016-Dec-05 21:33N 39°59' W 075°05'4 4.2
2016-Dec-05 20:33N 39°55' W 075°08'4 3.8
2016-Dec-05 19:33N 39°54' W 075°12'0 0.0
2016-Dec-05 18:33N 39°54' W 075°12'0 0.0
2016-Dec-05 17:33N 39°54' W 075°12'0 0.0
2016-Dec-05 16:33N 39°54' W 075°12'0 0.0
2016-Dec-05 15:33N 39°54' W 075°12'0 0.0
2016-Dec-05 14:33N 39°54' W 075°12'1 0.7
2016-Dec-05 13:33N 39°54' W 075°12'0 0.0
2016-Dec-05 12:33N 39°54' W 075°12'0 0.0
2016-Dec-05 11:34N 39°54' W 075°12'0 0.0
2016-Dec-05 10:33N 39°54' W 075°12'0 0.0
2016-Dec-05 09:33N 39°54' W 075°12'0 0.0
2016-Dec-05 08:33N 39°54' W 075°12'0 0.0
2016-Dec-05 07:34N 39°54' W 075°12'0 0.0
2016-Dec-05 06:34N 39°54' W 075°12'0 0.0
2016-Dec-05 05:34N 39°54' W 075°12'0 0.0
2016-Dec-05 04:34N 39°54' W 075°12'0 0.0
2016-Dec-05 03:34N 39°54' W 075°12'0 0.0
2016-Dec-05 02:33N 39°54' W 075°12'0 0.0
2016-Dec-05 01:33N 39°54' W 075°12'0 0.0
2016-Dec-05 00:33N 39°54' W 075°12'0 0.0
2016-Dec-04 23:33N 39°54' W 075°12'0 0.0
2016-Dec-04 22:34N 39°54' W 075°12'0 0.0
2016-Dec-04 21:34N 39°54' W 075°12'0 0.0
2016-Dec-04 20:34N 39°54' W 075°12'0 0.0
2016-Dec-04 19:33N 39°54' W 075°12'0 0.0
2016-Dec-04 18:33N 39°54' W 075°12'0 0.0
2016-Dec-04 17:34N 39°54' W 075°12'0 0.0
2016-Dec-04 16:34N 39°53' W 075°12'0 0.0
2016-Dec-04 15:34N 39°53' W 075°12'0 0.0
2016-Dec-04 14:33N 39°53' W 075°12'0 0.0
2016-Dec-04 13:33N 39°53' W 075°12'0 0.0
2016-Dec-04 12:34N 39°54' W 075°12'0 0.0
2016-Dec-04 11:33N 39°54' W 075°12'0 0.0
2016-Dec-04 10:33N 39°54' W 075°12'0 0.0
2016-Dec-04 09:34N 39°54' W 075°12'0 0.0
2016-Dec-04 08:34N 39°54' W 075°12'0 0.0
2016-Dec-04 07:34N 39°54' W 075°12'0 0.0
2016-Dec-04 06:34N 39°54' W 075°12'0 0.0
2016-Dec-04 05:34N 39°54' W 075°12'0 0.0
2016-Dec-04 04:34N 39°54' W 075°12'0 0.0
2016-Dec-04 03:34N 39°54' W 075°12'0 0.0
2016-Dec-04 02:33N 39°54' W 075°12'0 0.0
2016-Dec-04 01:34N 39°54' W 075°12'2 2.5
2016-Dec-04 00:34N 39°54' W 075°08'5 5.1
2016-Dec-03 23:33N 39°51' W 075°14'7 7.2
2016-Dec-03 22:33N 39°49' W 075°23'2 1.8
2016-Dec-03 21:34N 39°48' W 075°25'0 0.0
2016-Dec-03 20:33N 39°48' W 075°25'0 0.1
2016-Dec-03 19:34N 39°48' W 075°25'0 0.1
2016-Dec-03 18:33N 39°48' W 075°25'0 0.1
2016-Dec-03 17:34N 39°48' W 075°25'5 4.9
2016-Dec-03 16:33N 39°51' W 075°19'6 6.2
2016-Dec-03 15:33N 39°53' W 075°12'2 1.8
2016-Dec-03 14:33N 39°55' W 075°13'0 0.0
2016-Dec-03 13:34N 39°55' W 075°13'0 0.0
2016-Dec-03 12:33N 39°55' W 075°13'0 0.0
2016-Dec-03 11:33N 39°55' W 075°13'1 0.7
2016-Dec-03 10:33N 39°54' W 075°13'3 3.4
2016-Dec-03 09:34N 39°54' W 075°08'0 0.4
2016-Dec-03 08:33N 39°54' W 075°08'6 6.1
2016-Dec-03 07:34N 39°51' W 075°15'4 4.2
2016-Dec-03 06:33N 39°53' W 075°10'2 1.6
2016-Dec-03 05:34N 39°54' W 075°08'3 2.8
2016-Dec-03 04:33N 39°54' W 075°12'0 0.4
2016-Dec-03 03:34N 39°54' W 075°12'1 1.1
2016-Dec-03 02:34N 39°53' W 075°10'5 5.5
2016-Dec-03 01:34N 39°58' W 075°07'2 1.6
2016-Dec-03 00:34N 39°59' W 075°05'0 0.0
2016-Dec-02 23:34N 39°59' W 075°05'0 0.0
2016-Dec-02 22:34N 39°59' W 075°05'0 0.0
2016-Dec-02 21:34N 39°59' W 075°05'0 0.0
2016-Dec-02 20:33N 39°59' W 075°05'0 0.1
2016-Dec-02 19:33N 39°59' W 075°05'3 3.4
2016-Dec-02 18:34N 39°56' W 075°08'4 3.6
2016-Dec-02 17:33N 39°54' W 075°12'0 0.0
2016-Dec-02 16:33N 39°54' W 075°12'0 0.0
2016-Dec-02 15:34N 39°54' W 075°12'0 0.0
2016-Dec-02 14:34N 39°54' W 075°12'1 0.7
2016-Dec-02 13:34N 39°54' W 075°12'0 0.0
2016-Dec-02 12:34N 39°54' W 075°12'0 0.0
2016-Dec-02 11:34N 39°54' W 075°12'0 0.0
2016-Dec-02 10:34N 39°54' W 075°12'1 1.0
2016-Dec-02 09:33N 39°53' W 075°12'3 2.5
2016-Dec-02 08:34N 39°53' W 075°08'9 9.3
2016-Dec-02 07:33N 39°51' W 075°20'1010.1
2016-Dec-02 06:33N 39°44' W 075°30'10 9.6
2016-Dec-02 05:34N 39°35' W 075°33'6 6.3
2016-Dec-02 04:33N 39°33' W 075°41'9 9.4
2016-Dec-02 03:34N 39°31' W 075°53'10 9.8
2016-Dec-02 02:34N 39°24' W 076°02'10 9.8
2016-Dec-02 01:33N 39°19' W 076°13'10 9.3
2016-Dec-02 00:26N 39°10' W 076°19'8 9.3
2016-Dec-01 23:34N 39°02' W 076°22'10 9.6
2016-Dec-01 22:31N 38°52' W 076°26'42 1.3
2016-Nov-30 13:33N 38°13' W 076°06'0 0.4
2016-Nov-30 12:31N 38°13' W 076°07'49 4.5
2016-Nov-30 01:33N 39°00' W 076°23'9 8.3
2016-Nov-30 00:32N 39°09' W 076°25'8 7.9
2016-Nov-29 23:34N 39°14' W 076°32'2 2.2
2016-Nov-29 22:34N 39°15' W 076°33'0 0.0
2016-Nov-29 21:32N 39°15' W 076°33'1 1.1
2016-Nov-29 20:34N 39°15' W 076°34'0 0.1
2016-Nov-29 19:30N 39°15' W 076°34'0 0.0
2016-Nov-29 18:10N 39°15' W 076°34'0 0.0
2016-Nov-29 17:30N 39°15' W 076°34'0 0.0
2016-Nov-29 16:30N 39°15' W 076°34'0 0.0
2016-Nov-29 15:20N 39°15' W 076°34'1 0.3
2016-Nov-29 13:34N 39°15' W 076°34'1 0.5
2016-Nov-29 12:33N 39°15' W 076°33'0 0.4
2016-Nov-29 11:33N 39°16' W 076°33'0 0.0
2016-Nov-29 10:33N 39°16' W 076°33'0 0.0
2016-Nov-29 09:33N 39°16' W 076°33'0 0.0
2016-Nov-29 08:34N 39°16' W 076°33'0 0.0
2016-Nov-29 07:34N 39°16' W 076°33'0 0.0
2016-Nov-29 06:33N 39°16' W 076°33'0 0.0
2016-Nov-29 05:34N 39°16' W 076°33'0 0.0
2016-Nov-29 04:34N 39°16' W 076°33'0 0.0
2016-Nov-29 03:33N 39°16' W 076°33'0 0.0
2016-Nov-29 02:33N 39°16' W 076°33'0 0.0
2016-Nov-29 01:33N 39°16' W 076°33'0 0.0
2016-Nov-29 00:33N 39°16' W 076°33'0 0.0
2016-Nov-28 23:34N 39°16' W 076°33'0 0.0
2016-Nov-28 22:33N 39°16' W 076°33'0 0.4
2016-Nov-28 21:33N 39°15' W 076°33'0 0.3
2016-Nov-28 20:34N 39°15' W 076°33'0 0.0
2016-Nov-28 19:34N 39°15' W 076°33'0 0.0
2016-Nov-28 18:33N 39°15' W 076°33'0 0.0
2016-Nov-28 17:33N 39°15' W 076°33'0 0.0
2016-Nov-28 16:34N 39°15' W 076°33'0 0.1
2016-Nov-28 15:33N 39°15' W 076°33'1 1.0
2016-Nov-28 14:33N 39°14' W 076°33'8 7.5
2016-Nov-28 13:30N 39°10' W 076°24'6 6.6
2016-Nov-28 12:33N 39°12' W 076°16'6 6.2
2016-Nov-28 11:33N 39°18' W 076°14'5 5.2
2016-Nov-28 10:33N 39°21' W 076°09'4 3.7
2016-Nov-28 09:33N 39°23' W 076°05'0 0.5
2016-Nov-28 08:34N 39°23' W 076°05'0 0.0
2016-Nov-28 07:34N 39°23' W 076°05'0 0.0
2016-Nov-28 06:33N 39°23' W 076°05'6 6.2
2016-Nov-28 05:33N 39°20' W 076°12'8 7.7
2016-Nov-28 04:34N 39°13' W 076°16'9 8.0
2016-Nov-28 03:26N 39°05' W 076°21'7 8.4
2016-Nov-28 02:33N 38°57' W 076°24'55 7.9
2016-Nov-27 19:33N 38°02' W 076°22'  

Dump ship's entire track history